Sheng Jia 1 — XUGG7 — position and weather

sailwx.info

Track history (hours):
 
Tides and Currents Weather Stations Pressure Air Temp Water Temp Dewpoint Dewpoint Depression Visibility Wind Speed Wind Dir Waves Ship Positions

Sheng Jia 1

Last reported at 2014-Jul-28 15:09 UTC. Time now 2014-Jul-29 12:47 UTC.
Position N 38°47' E 121°48'.

Length 72 m; draft 4.2 m.

Type: Cargo ship. MMSI: 515744000.

Date/timePositionNaut miles runAvg speedWind from/ knotsBaromVisibWave heightAir tempDewpointWater temp
2014-Jul-28 15:09N 38°47' E 121°48'5 8.0
2014-Jul-28 14:32N 38°51' E 121°45'8 6.6
2014-Jul-28 13:21N 38°59' E 121°48'2 0.1
2014-Jul-27 14:12N 38°57' E 121°47'5 7.2
2014-Jul-27 13:30N 38°52' E 121°47'5 5.8
2014-Jul-27 12:33N 38°46' E 121°46'10 9.9
2014-Jul-27 11:34N 38°37' E 121°44'8 8.0
2014-Jul-27 10:33N 38°32' E 121°36'10 9.8
2014-Jul-27 09:33N 38°30' E 121°24'26 6.2
2014-Jul-27 05:25N 38°43' E 120°56'  
Track history (hours):
 
Tides and Currents Weather Stations Pressure Air Temp Water Temp Dewpoint Dewpoint Depression Visibility Wind Speed Wind Dir Waves Ship Positions

Sheng Jia 1

Last reported at 2014-Jul-28 15:09 UTC. Time now 2014-Jul-29 12:47 UTC.
Position N 38°47' E 121°48'.

Length 72 m; draft 4.2 m.

Type: Cargo ship. MMSI: 515744000.

Date/timePositionNaut miles runAvg speedWind from/ knotsBaromVisibWave heightAir tempDewpointWater temp
2014-Jul-28 15:09N 38°47' E 121°48'5 8.0
2014-Jul-28 14:32N 38°51' E 121°45'8 6.6
2014-Jul-28 13:21N 38°59' E 121°48'2 0.1
2014-Jul-27 14:12N 38°57' E 121°47'5 7.2
2014-Jul-27 13:30N 38°52' E 121°47'5 5.8
2014-Jul-27 12:33N 38°46' E 121°46'10 9.9
2014-Jul-27 11:34N 38°37' E 121°44'8 8.0
2014-Jul-27 10:33N 38°32' E 121°36'10 9.8
2014-Jul-27 09:33N 38°30' E 121°24'26 6.2
2014-Jul-27 05:25N 38°43' E 120°56'  

Dump ship's entire track history